Time;durP1;ratioP1;P1;durP2;ratioP2;P2;SDS_P1;SDS_P2;PMS_P1;PMS_P2;Temp;Humidity;BMP_temperature;BMP_pressure;BME280_temperature;BME280_humidity;BME280_pressure;Samples;Min_cycle;Max_cycle;Signal;HPM_P1;HPM_P2
2021/03/27 00:00:30;;;;;;;58.88;24.77;;;3.50;99.90;;;;;;21085076;28;20057;-58
2021/03/27 00:10:38;;;;;;;53.13;23.52;;;3.40;99.90;;;;;;21084882;28;20048;-58
2021/03/27 00:20:55;;;;;;;56.15;23.83;;;3.50;99.90;;;;;;21083435;28;20032;-58
2021/03/27 00:31:03;;;;;;;54.95;24.85;;;3.70;99.90;;;;;;21082838;28;20039;-58
2021/03/27 00:41:16;;;;;;;56.72;25.92;;;3.90;99.90;;;;;;21063526;28;20098;-58
2021/03/27 00:51:27;;;;;;;61.17;27.40;;;3.90;99.90;;;;;;21080318;28;20102;-58
2021/03/27 01:01:43;;;;;;;56.95;26.02;;;3.90;99.90;;;;;;21061390;28;20078;-59
2021/03/27 01:12:33;;;;;;;60.00;26.27;;;3.80;99.90;;;;;;20920440;28;20407;-58
2021/03/27 01:22:35;;;;;;;61.78;28.15;;;3.60;99.90;;;;;;21078913;28;20093;-59
2021/03/27 01:32:45;;;;;;;52.58;24.30;;;3.70;99.90;;;;;;21078165;28;20036;-59
2021/03/27 01:43:12;;;;;;;58.33;25.67;;;3.70;99.90;;;;;;21077162;28;20036;-59
2021/03/27 01:53:39;;;;;;;59.78;26.95;;;3.20;99.90;;;;;;21076798;28;20109;-58
2021/03/27 02:03:58;;;;;;;61.38;26.05;;;2.80;99.90;;;;;;21076285;28;20032;-58
2021/03/27 02:14:05;;;;;;;68.03;27.73;;;2.70;99.90;;;;;;21075481;28;20110;-59
2021/03/27 02:24:29;;;;;;;58.35;27.63;;;2.80;99.90;;;;;;21057294;28;20087;-59
2021/03/27 02:34:40;;;;;;;62.13;26.48;;;3.00;99.90;;;;;;21075230;28;20086;-58
2021/03/27 02:44:46;;;;;;;53.95;22.65;;;2.80;99.90;;;;;;21074404;28;20556;-58
2021/03/27 02:55:02;;;;;;;54.20;25.38;;;2.60;99.90;;;;;;21074822;28;20056;-59
2021/03/27 03:05:10;;;;;;;53.58;24.40;;;2.70;99.90;;;;;;21071314;28;20104;-59
2021/03/27 03:15:58;;;;;;;55.38;24.73;;;2.70;99.90;;;;;;21088717;28;20444;-59
2021/03/27 03:26:27;;;;;;;57.60;26.20;;;2.80;99.90;;;;;;21074385;28;20077;-59
2021/03/27 03:36:50;;;;;;;58.65;26.25;;;2.50;99.90;;;;;;21087510;28;20040;-59
2021/03/27 03:47:00;;;;;;;59.25;27.05;;;2.50;99.90;;;;;;21086262;28;20395;-59
2021/03/27 03:57:37;;;;;;;66.15;28.98;;;2.40;99.90;;;;;;21085501;28;20082;-59
2021/03/27 04:07:47;;;;;;;85.88;37.67;;;2.40;99.90;;;;;;21079408;28;20563;-59
2021/03/27 04:18:27;;;;;;;66.40;30.37;;;2.70;99.90;;;;;;21083917;28;20044;-59
2021/03/27 04:28:41;;;;;;;62.33;28.95;;;3.00;99.90;;;;;;21082325;28;20052;-59
2021/03/27 04:38:54;;;;;;;71.13;32.20;;;3.00;99.90;;;;;;21064207;28;20090;-59
2021/03/27 04:49:07;;;;;;;66.60;31.08;;;3.20;99.90;;;;;;21081379;28;20036;-59
2021/03/27 04:59:23;;;;;;;84.10;36.78;;;3.40;99.90;;;;;;21080427;28;20040;-58
2021/03/27 05:10:10;;;;;;;73.25;34.90;;;3.70;99.90;;;;;;21079809;28;20070;-58
2021/03/27 05:20:29;;;;;;;66.20;31.05;;;4.00;99.90;;;;;;21067606;28;20074;-58
2021/03/27 05:30:48;;;;;;;58.47;29.75;;;4.20;99.90;;;;;;21077755;28;20445;-59
2021/03/27 05:41:11;;;;;;;55.33;26.75;;;4.30;99.90;;;;;;21078439;28;20047;-58
2021/03/27 05:51:50;;;;;;;51.05;24.35;;;4.40;99.90;;;;;;21077970;28;20035;-58
2021/03/27 06:02:10;;;;;;;43.22;22.70;;;4.50;99.90;;;;;;21075357;28;20066;-58
2021/03/27 06:12:31;;;;;;;32.90;17.50;;;4.50;99.90;;;;;;21075652;28;20560;-59
2021/03/27 06:23:00;;;;;;;33.37;17.97;;;4.60;99.90;;;;;;21075577;28;20528;-59
2021/03/27 06:33:11;;;;;;;28.88;15.98;;;4.80;99.90;;;;;;21063749;28;20108;-58
2021/03/27 06:43:16;;;;;;;31.50;16.92;;;5.00;99.90;;;;;;21091640;28;20044;-58
2021/03/27 06:53:28;;;;;;;29.75;16.70;;;5.20;99.90;;;;;;21090037;28;20097;-59
2021/03/27 07:04:07;;;;;;;32.28;17.05;;;5.60;99.90;;;;;;21089780;28;20070;-58
2021/03/27 07:14:20;;;;;;;31.05;16.88;;;6.30;99.90;;;;;;21088959;28;20403;-58
2021/03/27 07:24:53;;;;;;;31.08;16.02;;;6.90;99.90;;;;;;21088343;28;20116;-59
2021/03/27 07:35:13;;;;;;;31.00;17.02;;;7.50;99.90;;;;;;21087497;28;20032;-58
2021/03/27 07:45:46;;;;;;;32.13;17.47;;;7.50;99.90;;;;;;21085996;28;20109;-59
2021/03/27 07:55:50;;;;;;;31.40;17.33;;;7.50;99.90;;;;;;21085795;28;20058;-59
2021/03/27 08:06:11;;;;;;;30.73;16.52;;;8.00;99.90;;;;;;21077723;28;20395;-62
2021/03/27 08:16:19;;;;;;;;;;;8.40;99.90;;;;;;21062014;28;20052;-57
2021/03/27 08:26:42;;;;;;;30.30;16.40;;;8.10;99.90;;;;;;21065556;28;19924;-58
2021/03/27 08:37:02;;;;;;;30.30;17.35;;;8.00;99.90;;;;;;21078755;28;20032;-59
2021/03/27 08:47:39;;;;;;;27.98;16.38;;;8.00;99.90;;;;;;21043770;28;20066;-59
2021/03/27 08:58:10;;;;;;;33.08;16.85;;;8.30;99.90;;;;;;21033203;28;20396;-63
2021/03/27 09:08:20;;;;;;;30.77;17.17;;;8.50;99.90;;;;;;21076299;28;20048;-61
2021/03/27 09:18:31;;;;;;;28.60;17.70;;;9.50;99.90;;;;;;21078524;28;20024;-59
2021/03/27 21:42:06;;;;;;;75.70;35.38;;;1.60;99.90;;;;;;21153353;27;20132;-48
2021/03/27 21:52:47;;;;;;;110.15;44.15;;;1.60;99.90;;;;;;21064384;28;20040;-52
2021/03/27 22:03:05;;;;;;;58.70;26.90;;;1.70;99.90;;;;;;20112524;28;10001382;-47
2021/03/27 22:13:19;;;;;;;51.22;24.70;;;1.70;99.90;;;;;;20893896;28;20111;-48
2021/03/27 22:23:33;;;;;;;54.88;25.40;;;1.50;99.90;;;;;;20893262;28;20033;-48
2021/03/27 22:34:01;;;;;;;55.80;25.38;;;1.50;99.90;;;;;;20878394;28;20100;-47
2021/03/27 22:44:29;;;;;;;57.72;26.95;;;1.40;99.90;;;;;;20804740;28;20572;-49
2021/03/27 22:54:36;;;;;;;56.50;26.27;;;1.50;99.90;;;;;;20754517;28;20037;-47
2021/03/27 23:04:46;;;;;;;51.75;25.02;;;1.60;99.90;;;;;;20753272;28;20038;-48
2021/03/27 23:14:49;;;;;;;52.60;26.20;;;1.60;99.90;;;;;;20752262;28;20034;-53
2021/03/27 23:25:00;;;;;;;56.95;27.35;;;1.60;99.90;;;;;;20751607;28;20080;-48
2021/03/27 23:35:10;;;;;;;71.10;30.95;;;1.70;99.90;;;;;;20776018;28;20038;-49
2021/03/27 23:45:31;;;;;;;48.35;24.83;;;1.90;99.90;;;;;;20814347;28;20115;-50
2021/03/27 23:55:42;;;;;;;62.35;28.63;;;2.30;99.90;;;;;;20831444;28;20088;-48
